Terminal Aerodrome Forecast
Issued by NWS

Home | Current Version | Previous Version | Text Only | Print | Product List | Glossary On
Versions: 1 2 3 4 5 6 7 8 9 10 11 12
000
FTAK31 PAJN 271729
TAFAGY
TAF
PAGY 271729Z 2718/2818 21020G30KT 6SM -RA SCT025 OVC050
     FM272000 20024G35KT 4SM -RA BR OVC030
     FM280200 21015G22KT 4SM -RA BR BKN025 OVC040
     FM280700 VRB05KT 6SM -RA SCT025 OVC040
     FM281300 04005KT P6SM -SHRA SCT025 OVC050
      AMD LTD TO CLD VIS AND WIND=

USA.gov is the U.S. government's official web portal to all federal, state and local government web resources and services.